createdAt,value
2023-05-24T00:02:45.636Z,54.99
2023-05-24T00:07:42.539Z,54.94
2023-05-24T00:12:40.551Z,54.85
2023-05-24T00:17:40.894Z,55.61
2023-05-24T00:22:38.890Z,55.62
2023-05-24T00:27:36.630Z,55.90
2023-05-24T00:32:33.587Z,55.17
2023-05-24T00:37:30.372Z,54.59
2023-05-24T00:42:27.636Z,53.97
2023-05-24T00:47:24.616Z,54.54
2023-05-24T00:52:21.473Z,56.67
2023-05-24T00:57:19.195Z,55.82
2023-05-24T01:02:18.028Z,55.61
2023-05-24T01:07:18.650Z,54.52
2023-05-24T01:12:19.966Z,54.64
2023-05-24T01:17:19.805Z,55.29
2023-05-24T01:22:33.636Z,54.40
2023-05-24T01:27:31.966Z,54.13
2023-05-24T01:32:28.920Z,54.59
2023-05-24T01:37:25.681Z,55.40
2023-05-24T01:42:24.753Z,57.62
2023-05-24T01:47:28.648Z,58.86
2023-05-24T01:52:29.003Z,57.59
2023-05-24T01:57:26.754Z,57.88
2023-05-24T02:02:24.903Z,59.35
2023-05-24T02:07:21.815Z,61.33
2023-05-24T02:12:18.538Z,60.57
2023-05-24T02:17:17.680Z,60.43
2023-05-24T02:22:15.183Z,59.54
2023-05-24T02:27:11.808Z,61.23
2023-05-24T02:32:08.570Z,62.89
2023-05-24T02:37:05.481Z,63.28
2023-05-24T02:42:05.383Z,64.49
2023-05-24T02:47:02.175Z,62.94
2023-05-24T02:51:59.054Z,62.15
2023-05-24T02:56:56.076Z,64.47
2023-05-24T03:01:53.701Z,65.25
2023-05-24T03:06:50.583Z,65.09
2023-05-24T03:11:47.294Z,62.65
2023-05-24T03:16:44.234Z,61.76
2023-05-24T03:21:41.816Z,60.19
2023-05-24T03:26:38.523Z,59.07
2023-05-24T03:31:35.519Z,57.69
2023-05-24T03:36:32.786Z,57.52
2023-05-24T03:41:30.096Z,58.33
2023-05-24T03:46:29.694Z,59.61
2023-05-24T03:51:29.002Z,59.23
2023-05-24T03:56:27.444Z,58.74
2023-05-24T04:01:33.503Z,61.99
2023-05-24T04:06:31.577Z,62.57
2023-05-24T04:11:28.913Z,62.69
2023-05-24T04:16:27.100Z,63.28
2023-05-24T04:21:23.787Z,62.81
2023-05-24T04:26:20.671Z,62.78
2023-05-24T04:31:17.418Z,63.96
2023-05-24T04:36:15.618Z,63.44
2023-05-24T04:41:12.892Z,62.97
2023-05-24T04:46:09.877Z,62.43
2023-05-24T04:51:06.632Z,63.04
2023-05-24T04:56:03.918Z,63.87
2023-05-24T05:01:01.022Z,64.46
2023-05-24T05:05:57.705Z,64.68
2023-05-24T05:10:54.362Z,65.74
2023-05-24T05:15:51.941Z,66.83
2023-05-24T05:20:48.973Z,67.41
2023-05-24T05:25:45.983Z,67.83
2023-05-24T05:30:42.956Z,66.22
2023-05-24T05:35:40.752Z,65.69
2023-05-24T05:40:37.728Z,65.84
2023-05-24T05:45:34.422Z,65.20
2023-05-24T05:50:30.989Z,63.52
2023-05-24T05:55:28.369Z,62.62
2023-05-24T06:00:25.205Z,63.44
2023-05-24T06:05:22.194Z,61.98
2023-05-24T06:10:18.797Z,62.57
2023-05-24T06:15:16.177Z,62.99
2023-05-24T06:20:15.262Z,62.80
2023-05-24T06:25:18.533Z,61.80
2023-05-24T06:30:15.535Z,62.02
2023-05-24T06:35:13.129Z,62.39
2023-05-24T06:40:10.072Z,62.81
2023-05-24T06:45:07.657Z,62.47
2023-05-24T06:50:04.798Z,62.13
2023-05-24T06:55:02.147Z,61.59
2023-05-24T06:59:58.704Z,58.87
2023-05-24T07:04:55.357Z,57.49
2023-05-24T07:09:52.103Z,58.70
2023-05-24T07:14:49.637Z,58.82
2023-05-24T07:19:46.330Z,59.41
2023-05-24T07:24:43.106Z,58.94
2023-05-24T07:29:40.603Z,58.40
2023-05-24T07:34:39.440Z,57.62
2023-05-24T07:39:36.572Z,54.79
2023-05-24T07:44:33.447Z,55.49
2023-05-24T07:49:30.630Z,54.64
2023-05-24T07:54:28.006Z,53.20
2023-05-24T07:59:24.693Z,51.45
2023-05-24T08:04:21.785Z,46.79
2023-05-24T08:09:18.522Z,47.12
2023-05-24T08:14:15.905Z,45.62
2023-05-24T08:19:12.648Z,45.14
2023-05-24T08:24:09.725Z,47.18
2023-05-24T08:29:08.132Z,47.45
2023-05-24T08:34:07.402Z,47.54
2023-05-24T08:39:04.774Z,47.19
2023-05-24T08:44:02.083Z,46.78
2023-05-24T08:48:59.588Z,46.89
2023-05-24T08:53:57.581Z,45.46
2023-05-24T08:58:55.931Z,45.41
2023-05-24T09:03:53.814Z,45.35
2023-05-24T09:08:52.049Z,45.78
2023-05-24T09:13:51.252Z,43.99
2023-05-24T09:18:52.927Z,43.46
2023-05-24T09:23:50.979Z,42.96
2023-05-24T09:28:47.801Z,43.39
2023-05-24T09:33:49.017Z,43.47
2023-05-24T09:38:46.190Z,42.70
2023-05-24T09:43:49.978Z,42.26
2023-05-24T09:48:57.413Z,42.16
2023-05-24T09:53:57.248Z,41.74
2023-05-24T09:59:01.037Z,40.69
2023-05-24T10:04:00.099Z,40.30
2023-05-24T10:08:57.340Z,39.54
2023-05-24T10:13:55.104Z,38.04
2023-05-24T10:18:54.049Z,39.04
2023-05-24T10:23:57.590Z,39.38
2023-05-24T10:28:59.068Z,39.72
2023-05-24T10:34:07.258Z,39.58
2023-05-24T10:39:08.066Z,38.34
2023-05-24T10:44:11.066Z,38.45
2023-05-24T10:49:08.271Z,37.88
2023-05-24T10:54:12.928Z,38.64
2023-05-24T10:59:10.077Z,38.51
2023-05-24T11:04:07.921Z,39.04
2023-05-24T11:09:09.762Z,38.90
2023-05-24T11:14:08.844Z,39.18
2023-05-24T11:19:12.695Z,38.37
2023-05-24T11:24:09.912Z,38.36
2023-05-24T11:29:07.824Z,38.74
2023-05-24T11:34:10.103Z,38.77
2023-05-24T11:39:08.018Z,37.85
2023-05-24T11:44:04.776Z,38.98
2023-05-24T11:49:03.845Z,38.02
2023-05-24T11:54:00.948Z,38.33
2023-05-24T11:59:03.630Z,39.44
2023-05-24T12:04:00.542Z,38.59
2023-05-24T12:09:00.960Z,36.37
2023-05-24T12:14:01.239Z,37.49
2023-05-24T12:19:05.180Z,36.75
2023-05-24T12:24:10.637Z,37.50
2023-05-24T12:29:07.367Z,36.41
2023-05-24T12:34:06.136Z,36.41
2023-05-24T12:39:18.207Z,36.59
2023-05-24T12:44:14.911Z,35.92
2023-05-24T12:49:11.676Z,36.97
2023-05-24T12:54:08.498Z,35.11
2023-05-24T12:59:05.838Z,34.39
2023-05-24T13:04:02.566Z,34.63
2023-05-24T13:08:59.441Z,33.26
2023-05-24T13:13:56.968Z,33.17
2023-05-24T13:18:54.999Z,31.79
2023-05-24T13:23:51.858Z,31.29
2023-05-24T13:29:15.202Z,31.94
2023-05-24T13:34:09.479Z,32.99
2023-05-24T13:44:09.210Z,32.10
2023-05-24T13:49:06.873Z,31.65
2023-05-24T13:54:04.440Z,31.07
2023-05-24T13:59:06.563Z,32.16
2023-05-24T14:04:04.333Z,32.61
2023-05-24T14:09:02.000Z,32.28
2023-05-24T14:18:59.114Z,30.69
2023-05-24T14:23:56.030Z,31.80
2023-05-24T14:28:56.378Z,31.29
2023-05-24T14:33:53.830Z,31.23
2023-05-24T14:38:51.280Z,30.35
2023-05-24T14:43:48.374Z,30.90
2023-05-24T14:48:48.811Z,31.96
2023-05-24T14:53:45.680Z,32.00
2023-05-24T14:58:42.661Z,32.54
2023-05-24T15:03:39.705Z,33.06
2023-05-24T15:08:37.188Z,33.14
2023-05-24T15:13:34.190Z,32.95
2023-05-24T15:18:31.702Z,33.01
2023-05-24T15:23:28.282Z,32.34
2023-05-24T15:28:26.660Z,32.88
2023-05-24T15:33:23.907Z,32.45
2023-05-24T15:38:24.427Z,32.74
2023-05-24T15:43:21.213Z,32.93
2023-05-24T15:48:24.515Z,33.30
2023-05-24T15:53:21.928Z,33.54
2023-05-24T15:58:20.540Z,33.80
2023-05-24T16:03:17.327Z,34.69
2023-05-24T16:08:15.603Z,35.91
2023-05-24T16:13:12.451Z,37.21
2023-05-24T16:18:09.470Z,36.92
2023-05-24T16:23:06.527Z,37.76
2023-05-24T16:28:05.095Z,38.56
2023-05-24T16:33:02.325Z,38.96
2023-05-24T16:37:59.658Z,39.68
2023-05-24T16:42:59.618Z,40.17
2023-05-24T16:47:59.349Z,40.72
2023-05-24T16:52:56.190Z,40.53
2023-05-24T16:57:53.346Z,40.34
2023-05-24T17:02:50.384Z,40.82
2023-05-24T17:07:48.036Z,40.22
2023-05-24T17:12:46.922Z,40.16
2023-05-24T17:17:43.652Z,40.39
2023-05-24T17:22:40.686Z,40.67
2023-05-24T17:27:38.722Z,40.34
2023-05-24T17:32:35.707Z,40.24
2023-05-24T17:37:32.647Z,39.62
2023-05-24T17:42:29.553Z,39.66
2023-05-24T17:47:26.879Z,39.54
2023-05-24T17:52:23.635Z,39.58
2023-05-24T17:57:20.424Z,39.29
2023-05-24T18:02:17.382Z,39.44
2023-05-24T18:07:14.772Z,40.12
2023-05-24T18:12:11.918Z,41.73
2023-05-24T18:17:14.306Z,43.08
2023-05-24T18:22:11.205Z,42.37
2023-05-24T18:27:08.868Z,42.95
2023-05-24T18:32:06.041Z,42.32
2023-05-24T18:37:03.053Z,42.60
2023-05-24T18:42:02.298Z,42.18
2023-05-24T18:47:01.256Z,43.58
2023-05-24T18:51:58.132Z,42.00
2023-05-24T18:56:55.803Z,42.58
2023-05-24T19:01:52.964Z,43.13
2023-05-24T19:06:52.126Z,44.01
2023-05-24T19:11:49.097Z,43.58
2023-05-24T19:16:46.215Z,44.09
2023-05-24T19:21:43.032Z,43.67
2023-05-24T19:26:40.854Z,43.53
2023-05-24T19:31:38.146Z,43.83
2023-05-24T19:36:35.495Z,45.01
2023-05-24T19:41:32.554Z,44.37
2023-05-24T19:46:30.177Z,45.42
2023-05-24T19:51:28.087Z,45.79
2023-05-24T19:56:25.313Z,44.26
2023-05-24T20:01:22.228Z,44.49
2023-05-24T20:06:19.654Z,43.94
2023-05-24T20:11:16.324Z,44.53
2023-05-24T20:16:13.389Z,44.07
2023-05-24T20:21:10.598Z,44.81
2023-05-24T20:26:08.055Z,46.99
2023-05-24T20:31:05.140Z,48.37
2023-05-24T20:36:01.884Z,47.76
2023-05-24T20:40:59.054Z,47.38
2023-05-24T20:45:56.527Z,47.88
2023-05-24T20:50:53.219Z,50.85
2023-05-24T20:55:49.959Z,50.11
2023-05-24T21:00:46.776Z,48.45
2023-05-24T21:05:44.422Z,47.61
2023-05-24T21:10:41.449Z,46.24
2023-05-24T21:15:38.260Z,47.09
2023-05-24T21:20:35.389Z,48.71
2023-05-24T21:25:32.952Z,49.28
2023-05-24T21:30:29.751Z,49.51
2023-05-24T21:35:26.500Z,50.25
2023-05-24T21:40:25.873Z,47.89
2023-05-24T21:45:23.426Z,47.53
2023-05-24T21:50:20.185Z,47.98
2023-05-24T21:55:16.792Z,48.71
2023-05-24T22:00:14.185Z,48.44
2023-05-24T22:05:11.498Z,49.32
2023-05-24T22:10:08.492Z,49.37
2023-05-24T22:15:05.671Z,49.19
2023-05-24T22:20:04.239Z,50.06
2023-05-24T22:25:01.602Z,50.14
2023-05-24T22:29:58.543Z,50.48
2023-05-24T22:34:55.354Z,51.01
2023-05-24T22:39:51.996Z,51.30
2023-05-24T22:44:49.397Z,51.38
2023-05-24T22:49:46.125Z,50.38
2023-05-24T22:54:42.779Z,50.26
2023-05-24T22:59:39.574Z,50.79
2023-05-24T23:04:37.227Z,50.82
2023-05-24T23:09:34.311Z,50.52
2023-05-24T23:14:31.384Z,51.45
2023-05-24T23:19:29.752Z,50.80
2023-05-24T23:24:27.247Z,51.51
2023-05-24T23:29:23.958Z,53.05
2023-05-24T23:34:20.674Z,52.13
2023-05-24T23:39:17.541Z,51.45
2023-05-24T23:44:15.471Z,50.10
2023-05-24T23:49:12.435Z,49.58
2023-05-24T23:54:09.049Z,50.59
2023-05-24T23:59:05.918Z,50.44
